createdAt,value
2023-09-21T00:01:13.593Z,1.50
2023-09-21T00:03:41.078Z,1.55
2023-09-21T00:06:08.219Z,2.13
2023-09-21T00:08:35.520Z,2.05
2023-09-21T00:11:05.453Z,2.10
2023-09-21T00:13:33.259Z,1.58
2023-09-21T00:16:03.638Z,1.52
2023-09-21T00:18:40.621Z,1.88
2023-09-21T00:21:07.664Z,1.95
2023-09-21T00:23:34.530Z,1.80
2023-09-21T00:26:01.806Z,1.80
2023-09-21T00:28:29.812Z,1.85
2023-09-21T00:30:59.039Z,1.80
2023-09-21T00:33:27.056Z,2.17
2023-09-21T00:35:54.594Z,1.95
2023-09-21T00:38:24.134Z,2.03
2023-09-21T00:40:51.188Z,2.15
2023-09-21T00:43:22.564Z,1.90
2023-09-21T00:45:53.066Z,1.92
2023-09-21T00:48:24.232Z,2.00
2023-09-21T00:50:52.561Z,2.20
2023-09-21T00:53:19.504Z,2.10
2023-09-21T00:55:51.665Z,1.60
2023-09-21T00:58:19.752Z,2.00
2023-09-21T01:00:47.616Z,1.88
2023-09-21T01:03:15.442Z,1.77
2023-09-21T01:05:46.594Z,2.00
2023-09-21T01:08:18.780Z,1.83
2023-09-21T01:10:50.984Z,2.63
2023-09-21T01:13:18.802Z,2.08
2023-09-21T01:15:46.798Z,1.70
2023-09-21T01:18:14.500Z,1.40
2023-09-21T01:20:45.713Z,2.50
2023-09-21T01:23:20.430Z,1.90
2023-09-21T01:25:52.105Z,1.90
2023-09-21T01:28:20.761Z,2.00
2023-09-21T01:30:49.016Z,2.00
2023-09-21T01:33:19.113Z,1.95
2023-09-21T01:35:46.943Z,2.08
2023-09-21T01:38:14.990Z,1.80
2023-09-21T01:40:43.196Z,1.95
2023-09-21T01:43:16.500Z,1.75
2023-09-21T01:45:45.851Z,2.08
2023-09-21T01:48:16.605Z,2.28
2023-09-21T01:50:47.095Z,2.10
2023-09-21T01:53:14.814Z,1.92
2023-09-21T01:55:42.722Z,1.73
2023-09-21T01:58:12.969Z,2.10
2023-09-21T02:00:41.343Z,2.25
2023-09-21T02:03:14.217Z,1.90
2023-09-21T02:05:42.228Z,2.00
2023-09-21T02:08:13.000Z,2.20
2023-09-21T02:10:41.814Z,1.80
2023-09-21T02:13:09.216Z,2.20
2023-09-21T02:15:40.945Z,2.20
2023-09-21T02:18:11.562Z,2.03
2023-09-21T02:20:47.131Z,1.83
2023-09-21T02:23:13.991Z,2.03
2023-09-21T02:25:41.615Z,2.25
2023-09-21T02:28:15.805Z,1.90
2023-09-21T02:33:11.514Z,1.80
2023-09-21T02:35:45.886Z,2.17
2023-09-21T02:38:13.534Z,2.30
2023-09-21T02:40:44.163Z,2.22
2023-09-21T02:43:11.027Z,1.70
2023-09-21T02:45:38.398Z,1.90
2023-09-21T02:48:06.790Z,1.92
2023-09-21T02:50:34.237Z,1.85
2023-09-21T02:53:07.868Z,1.90
2023-09-21T02:55:36.854Z,1.90
2023-09-21T02:58:12.204Z,2.00
2023-09-21T03:00:44.252Z,1.95
2023-09-21T03:03:16.595Z,1.73
2023-09-21T03:05:49.188Z,1.85
2023-09-21T03:08:17.849Z,1.95
2023-09-21T03:10:45.907Z,1.98
2023-09-21T03:13:14.492Z,1.80
2023-09-21T03:15:41.694Z,1.90
2023-09-21T03:18:13.365Z,2.10
2023-09-21T03:20:45.211Z,1.80
2023-09-21T03:23:14.066Z,2.10
2023-09-21T03:25:45.130Z,2.40
2023-09-21T03:28:16.280Z,1.90
2023-09-21T03:30:51.830Z,1.77
2023-09-21T03:33:20.696Z,2.13
2023-09-21T03:35:47.989Z,2.20
2023-09-21T03:38:14.840Z,2.35
2023-09-21T03:40:43.025Z,1.90
2023-09-21T03:43:14.266Z,1.80
2023-09-21T03:45:45.778Z,1.90
2023-09-21T03:48:14.119Z,2.00
2023-09-21T03:50:42.825Z,1.83
2023-09-21T03:53:11.137Z,1.90
2023-09-21T03:55:47.791Z,2.00
2023-09-21T03:58:16.171Z,2.10
2023-09-21T04:00:43.174Z,1.90
2023-09-21T04:03:11.821Z,1.90
2023-09-21T04:05:41.797Z,1.73
2023-09-21T04:08:09.862Z,2.10
2023-09-21T04:10:41.747Z,1.95
2023-09-21T04:13:08.538Z,2.13
2023-09-21T04:15:35.646Z,2.40
2023-09-21T04:18:03.618Z,2.00
2023-09-21T04:20:36.692Z,2.85
2023-09-21T04:23:04.417Z,2.53
2023-09-21T04:25:31.647Z,2.88
2023-09-21T04:27:58.421Z,2.78
2023-09-21T04:30:25.817Z,3.00
2023-09-21T04:32:54.848Z,2.30
2023-09-21T04:35:22.362Z,2.60
2023-09-21T04:37:52.733Z,2.67
2023-09-21T04:40:19.962Z,2.45
2023-09-21T04:42:48.626Z,2.70
2023-09-21T04:45:20.252Z,2.92
2023-09-21T04:47:50.619Z,2.80
2023-09-21T04:50:19.414Z,2.90
2023-09-21T04:52:52.064Z,3.03
2023-09-21T04:55:20.008Z,2.67
2023-09-21T04:57:47.447Z,2.30
2023-09-21T05:00:16.443Z,2.45
2023-09-21T05:02:44.883Z,2.28
2023-09-21T05:05:12.608Z,2.40
2023-09-21T05:07:39.330Z,2.10
2023-09-21T05:10:08.652Z,2.50
2023-09-21T05:12:35.913Z,2.80
2023-09-21T05:15:08.023Z,3.97
2023-09-21T05:17:37.859Z,3.53
2023-09-21T05:20:08.119Z,4.85
2023-09-21T05:22:35.301Z,4.15
2023-09-21T05:25:04.891Z,3.50
2023-09-21T05:27:31.822Z,3.20
2023-09-21T05:30:00.870Z,3.53
2023-09-21T05:32:31.217Z,2.60
2023-09-21T05:35:00.160Z,2.88
2023-09-21T05:37:26.845Z,2.42
2023-09-21T05:39:53.933Z,2.22
2023-09-21T05:42:20.663Z,2.30
2023-09-21T05:44:47.527Z,2.13
2023-09-21T05:47:14.410Z,2.10
2023-09-21T05:49:41.386Z,2.20
2023-09-21T05:52:13.761Z,2.78
2023-09-21T05:54:43.564Z,2.40
2023-09-21T05:57:10.807Z,3.05
2023-09-21T05:59:38.000Z,3.08
2023-09-21T06:02:06.597Z,2.95
2023-09-21T06:04:35.746Z,3.30
2023-09-21T06:07:04.361Z,3.13
2023-09-21T06:09:31.038Z,3.30
2023-09-21T06:11:58.051Z,3.90
2023-09-21T06:14:24.885Z,3.95
2023-09-21T06:16:53.312Z,3.70
2023-09-21T06:19:20.634Z,3.25
2023-09-21T06:21:49.530Z,3.03
2023-09-21T06:24:16.968Z,3.30
2023-09-21T06:26:44.179Z,2.63
2023-09-21T06:29:12.193Z,2.72
2023-09-21T06:31:39.124Z,2.97
2023-09-21T06:34:13.402Z,2.70
2023-09-21T06:39:07.664Z,2.88
2023-09-21T06:41:34.883Z,2.92
2023-09-21T06:44:01.636Z,4.55
2023-09-21T06:46:28.470Z,3.60
2023-09-21T06:48:58.276Z,3.33
2023-09-21T06:51:26.741Z,3.13
2023-09-21T06:53:53.545Z,3.47
2023-09-21T06:56:22.746Z,3.38
2023-09-21T06:58:49.675Z,3.30
2023-09-21T07:01:16.447Z,2.97
2023-09-21T07:03:45.060Z,3.58
2023-09-21T07:06:13.326Z,3.50
2023-09-21T07:08:40.519Z,3.42
2023-09-21T07:11:07.367Z,3.28
2023-09-21T07:13:34.148Z,3.20
2023-09-21T07:16:00.962Z,3.22
2023-09-21T07:18:28.630Z,3.13
2023-09-21T07:20:55.721Z,3.15
2023-09-21T07:23:22.914Z,3.55
2023-09-21T07:25:50.461Z,3.67
2023-09-21T07:28:17.683Z,3.30
2023-09-21T07:30:44.566Z,3.40
2023-09-21T07:33:11.451Z,3.33
2023-09-21T07:35:38.692Z,3.70
2023-09-21T07:38:05.447Z,3.40
2023-09-21T07:40:32.983Z,3.35
2023-09-21T07:42:59.777Z,3.65
2023-09-21T07:45:27.038Z,3.78
2023-09-21T07:47:55.970Z,3.65
2023-09-21T07:50:27.439Z,4.00
2023-09-21T07:52:58.068Z,3.95
2023-09-21T07:55:24.979Z,4.40
2023-09-21T07:57:52.295Z,3.78
2023-09-21T08:00:19.864Z,4.30
2023-09-21T08:02:47.045Z,3.70
2023-09-21T08:05:14.569Z,3.75
2023-09-21T08:07:42.205Z,3.83
2023-09-21T08:10:16.962Z,3.88
2023-09-21T08:12:44.016Z,3.72
2023-09-21T08:15:12.490Z,3.35
2023-09-21T08:17:40.095Z,3.65
2023-09-21T08:20:11.253Z,3.72
2023-09-21T08:22:38.796Z,3.60
2023-09-21T08:25:09.546Z,4.00
2023-09-21T08:27:36.682Z,3.70
2023-09-21T08:30:05.876Z,3.58
2023-09-21T08:32:34.413Z,3.35
2023-09-21T08:35:02.898Z,3.47
2023-09-21T08:37:31.023Z,3.78
2023-09-21T08:39:58.004Z,3.10
2023-09-21T08:42:26.931Z,3.75
2023-09-21T08:44:54.859Z,3.38
2023-09-21T08:47:34.087Z,3.50
2023-09-21T08:50:06.028Z,2.97
2023-09-21T08:52:34.275Z,3.13
2023-09-21T08:55:04.695Z,3.30
2023-09-21T08:57:32.696Z,3.42
2023-09-21T09:00:10.225Z,3.28
2023-09-21T09:02:37.417Z,3.20
2023-09-21T09:05:09.281Z,3.50
2023-09-21T09:07:42.916Z,3.00
2023-09-21T09:10:11.625Z,3.50
2023-09-21T09:13:25.162Z,3.00
2023-09-21T09:15:52.072Z,3.28
2023-09-21T09:18:19.217Z,3.00
2023-09-21T09:20:46.412Z,3.15
2023-09-21T09:23:14.570Z,3.33
2023-09-21T09:25:44.252Z,3.10
2023-09-21T09:28:11.401Z,2.90
2023-09-21T09:30:38.586Z,2.95
2023-09-21T09:33:10.917Z,2.83
2023-09-21T09:35:42.745Z,3.10
2023-09-21T09:38:10.361Z,3.17
2023-09-21T09:40:41.314Z,2.60
2023-09-21T09:43:14.375Z,3.50
2023-09-21T09:45:44.196Z,3.40
2023-09-21T09:48:17.596Z,3.72
2023-09-21T09:50:51.724Z,4.53
2023-09-21T09:53:21.178Z,4.22
2023-09-21T09:55:48.216Z,9.10
2023-09-21T09:58:17.140Z,5.32
2023-09-21T10:00:46.629Z,3.60
2023-09-21T10:03:14.103Z,8.05
2023-09-21T10:05:42.354Z,3.47
2023-09-21T10:08:10.013Z,3.00
2023-09-21T10:10:57.319Z,3.25
2023-09-21T10:13:28.229Z,3.00
2023-09-21T10:16:05.167Z,3.33
2023-09-21T10:18:36.968Z,2.65
2023-09-21T10:21:32.592Z,3.50
2023-09-21T10:24:15.291Z,2.90
2023-09-21T10:26:51.291Z,2.30
2023-09-21T10:29:30.251Z,2.58
2023-09-21T10:32:01.713Z,2.70
2023-09-21T10:34:30.343Z,2.30
2023-09-21T10:37:07.952Z,2.78
2023-09-21T10:39:35.233Z,2.65
2023-09-21T10:42:05.458Z,2.58
2023-09-21T10:44:58.120Z,2.60
2023-09-21T10:47:34.280Z,2.10
2023-09-21T10:50:04.134Z,2.50
2023-09-21T10:52:32.122Z,2.65
2023-09-21T10:54:59.316Z,2.22
2023-09-21T10:57:30.759Z,2.22
2023-09-21T11:00:13.449Z,2.40
2023-09-21T11:02:41.752Z,2.40
2023-09-21T11:05:11.747Z,2.58
2023-09-21T11:07:41.301Z,2.50
2023-09-21T11:10:13.246Z,2.63
2023-09-21T11:12:46.635Z,2.60
2023-09-21T11:15:18.794Z,2.85
2023-09-21T11:17:47.499Z,2.35
2023-09-21T11:20:19.462Z,2.50
2023-09-21T11:22:49.895Z,2.60
2023-09-21T11:25:22.239Z,2.30
2023-09-21T11:27:50.851Z,2.42
2023-09-21T11:30:29.994Z,2.83
2023-09-21T11:32:58.904Z,2.50
2023-09-21T11:35:27.114Z,2.35
2023-09-21T11:37:54.090Z,2.42
2023-09-21T11:40:24.694Z,2.33
2023-09-21T11:42:56.831Z,2.33
2023-09-21T11:45:25.882Z,2.85
2023-09-21T11:48:00.260Z,2.42
2023-09-21T11:50:34.088Z,2.72
2023-09-21T11:53:07.520Z,2.28
2023-09-21T11:55:35.171Z,2.80
2023-09-21T11:58:15.935Z,2.70
2023-09-21T12:00:52.656Z,2.80
2023-09-21T12:03:26.065Z,2.50
2023-09-21T12:05:57.401Z,2.90
2023-09-21T12:08:26.757Z,2.53
2023-09-21T12:10:55.005Z,2.53
2023-09-21T12:13:23.182Z,2.70
2023-09-21T12:15:54.014Z,2.35
2023-09-21T12:18:22.894Z,2.45
2023-09-21T12:20:51.280Z,2.60
2023-09-21T12:23:19.391Z,2.80
2023-09-21T12:25:47.041Z,2.60
2023-09-21T12:28:14.166Z,2.60
2023-09-21T12:30:44.005Z,2.40
2023-09-21T12:33:34.762Z,2.50
2023-09-21T12:36:06.937Z,2.65
2023-09-21T12:38:40.916Z,2.80
2023-09-21T12:43:39.641Z,2.78
2023-09-21T12:46:09.651Z,2.30
2023-09-21T12:48:39.871Z,2.70
2023-09-21T12:53:34.110Z,2.40
2023-09-21T12:56:00.996Z,2.90
2023-09-21T12:58:27.848Z,2.70
2023-09-21T13:00:54.929Z,2.50
2023-09-21T13:03:22.012Z,2.40
2023-09-21T13:05:49.039Z,2.70
2023-09-21T13:08:17.449Z,2.97
2023-09-21T13:10:47.153Z,2.58
2023-09-21T13:13:17.315Z,2.63
2023-09-21T13:15:44.118Z,2.50
2023-09-21T13:18:12.193Z,2.83
2023-09-21T13:20:39.348Z,2.75
2023-09-21T13:23:07.019Z,2.83
2023-09-21T13:25:33.805Z,2.72
2023-09-21T13:28:00.517Z,2.65
2023-09-21T13:30:27.914Z,2.53
2023-09-21T13:32:54.893Z,2.90
2023-09-21T13:35:23.311Z,2.80
2023-09-21T13:37:50.899Z,3.05
2023-09-21T13:40:17.771Z,3.00
2023-09-21T13:42:44.672Z,2.90
2023-09-21T13:45:18.253Z,2.78
2023-09-21T13:47:45.610Z,3.00
2023-09-21T13:50:12.583Z,2.63
2023-09-21T13:52:39.460Z,2.53
2023-09-21T13:57:41.748Z,2.40
2023-09-21T14:00:11.185Z,2.78
2023-09-21T14:02:39.261Z,2.63
2023-09-21T14:05:07.753Z,2.80
2023-09-21T14:07:34.745Z,2.72
2023-09-21T14:10:02.357Z,3.00
2023-09-21T14:12:29.747Z,2.63
2023-09-21T14:14:57.549Z,4.10
2023-09-21T14:17:24.333Z,3.80
2023-09-21T14:19:54.709Z,5.22
2023-09-21T14:22:23.966Z,4.15
2023-09-21T14:24:52.713Z,3.53
2023-09-21T14:27:19.685Z,3.75
2023-09-21T14:29:47.282Z,3.00
2023-09-21T14:32:14.072Z,3.25
2023-09-21T14:34:41.026Z,2.85
2023-09-21T14:37:11.167Z,3.47
2023-09-21T14:39:37.969Z,3.20
2023-09-21T14:42:05.244Z,2.90
2023-09-21T14:44:32.201Z,2.85
2023-09-21T14:46:58.937Z,2.63
2023-09-21T14:49:28.857Z,2.97
2023-09-21T14:51:56.898Z,2.75
2023-09-21T14:54:27.795Z,3.17
2023-09-21T14:56:55.313Z,2.75
2023-09-21T14:59:22.228Z,2.97
2023-09-21T15:01:50.297Z,2.80
2023-09-21T15:04:17.726Z,2.90
2023-09-21T15:06:44.738Z,2.75
2023-09-21T15:09:11.601Z,3.20
2023-09-21T15:11:41.707Z,2.80
2023-09-21T15:14:08.488Z,2.90
2023-09-21T15:16:36.122Z,3.05
2023-09-21T15:19:04.001Z,2.55
2023-09-21T15:21:32.278Z,2.75
2023-09-21T15:24:00.332Z,2.63
2023-09-21T15:26:28.119Z,2.65
2023-09-21T15:28:54.896Z,2.90
2023-09-21T15:31:44.869Z,2.78
2023-09-21T15:34:12.218Z,2.85
2023-09-21T15:36:42.309Z,2.58
2023-09-21T15:39:10.235Z,2.92
2023-09-21T15:41:37.636Z,2.90
2023-09-21T15:44:04.702Z,2.65
2023-09-21T15:46:31.793Z,3.00
2023-09-21T15:48:58.840Z,2.63
2023-09-21T15:51:25.731Z,2.90
2023-09-21T15:53:55.554Z,2.80
2023-09-21T15:56:22.383Z,3.10
2023-09-21T15:58:49.389Z,2.58
2023-09-21T16:01:19.416Z,2.85
2023-09-21T16:03:46.439Z,2.80
2023-09-21T16:06:13.470Z,3.20
2023-09-21T16:08:41.188Z,3.03
2023-09-21T16:11:08.004Z,3.05
2023-09-21T16:13:34.805Z,2.80
2023-09-21T16:16:01.986Z,3.05
2023-09-21T16:18:28.979Z,3.00
2023-09-21T16:20:55.857Z,3.20
2023-09-21T16:23:22.785Z,3.05
2023-09-21T16:25:49.542Z,2.83
2023-09-21T16:28:16.428Z,2.53
2023-09-21T16:30:43.277Z,2.90
2023-09-21T16:33:10.221Z,2.70
2023-09-21T16:35:39.150Z,2.97
2023-09-21T16:38:09.186Z,3.10
2023-09-21T16:40:39.818Z,2.70
2023-09-21T16:43:06.589Z,3.00
2023-09-21T16:45:36.783Z,3.25
2023-09-21T16:48:06.430Z,2.83
2023-09-21T16:50:37.381Z,2.88
2023-09-21T16:53:04.801Z,2.90
2023-09-21T16:55:32.233Z,3.20
2023-09-21T16:57:59.064Z,3.00
2023-09-21T17:00:29.105Z,2.83
2023-09-21T17:03:14.140Z,2.78
2023-09-21T17:05:41.553Z,2.75
2023-09-21T17:08:10.142Z,2.92
2023-09-21T17:10:38.171Z,2.90
2023-09-21T17:13:04.983Z,2.70
2023-09-21T17:15:35.968Z,2.60
2023-09-21T17:18:02.856Z,2.70
2023-09-21T17:20:31.136Z,2.83
2023-09-21T17:22:57.977Z,2.97
2023-09-21T17:25:24.792Z,2.92
2023-09-21T17:27:52.611Z,3.13
2023-09-21T17:30:19.629Z,2.97
2023-09-21T17:32:46.609Z,2.95
2023-09-21T17:35:13.522Z,2.88
2023-09-21T17:37:40.381Z,3.42
2023-09-21T17:40:11.284Z,3.38
2023-09-21T17:42:38.381Z,3.22
2023-09-21T17:45:05.860Z,7.97
2023-09-21T17:47:35.865Z,4.70
2023-09-21T17:50:02.774Z,4.95
2023-09-21T17:52:30.183Z,5.25
2023-09-21T17:55:01.832Z,5.93
2023-09-21T17:57:29.194Z,5.32
2023-09-21T17:59:55.986Z,5.47
2023-09-21T18:02:23.128Z,5.15
2023-09-21T18:04:50.400Z,3.97
2023-09-21T18:07:17.472Z,3.60
2023-09-21T18:09:44.308Z,3.40
2023-09-21T18:12:11.249Z,3.40
2023-09-21T18:14:38.082Z,3.40
2023-09-21T18:17:05.021Z,3.40
2023-09-21T18:19:33.784Z,3.15
2023-09-21T18:22:00.878Z,3.30
2023-09-21T18:24:28.712Z,2.97
2023-09-21T18:26:55.648Z,2.88
2023-09-21T18:29:22.845Z,3.03
2023-09-21T18:31:49.744Z,3.00
2023-09-21T18:34:16.818Z,2.80
2023-09-21T18:36:43.966Z,2.67
2023-09-21T18:39:14.018Z,3.08
2023-09-21T18:41:42.077Z,3.20
2023-09-21T18:44:08.896Z,2.75
2023-09-21T18:46:36.444Z,3.17
2023-09-21T18:49:05.115Z,3.03
2023-09-21T18:51:32.281Z,2.92
2023-09-21T18:53:59.108Z,3.20
2023-09-21T18:56:29.600Z,2.90
2023-09-21T18:58:57.585Z,3.30
2023-09-21T19:01:25.342Z,3.00
2023-09-21T19:03:53.091Z,3.42
2023-09-21T19:06:23.706Z,2.70
2023-09-21T19:08:50.554Z,3.10
2023-09-21T19:11:18.185Z,3.00
2023-09-21T19:13:45.998Z,2.67
2023-09-21T19:16:13.973Z,3.00
2023-09-21T19:18:41.494Z,2.60
2023-09-21T19:21:09.771Z,2.90
2023-09-21T19:23:37.208Z,2.45
2023-09-21T19:26:08.244Z,2.00
2023-09-21T19:28:35.370Z,2.53
2023-09-21T19:31:02.413Z,2.60
2023-09-21T19:33:29.457Z,2.28
2023-09-21T19:36:00.741Z,2.75
2023-09-21T19:38:28.411Z,3.03
2023-09-21T19:40:55.373Z,2.58
2023-09-21T19:43:22.409Z,2.80
2023-09-21T19:45:49.189Z,2.75
2023-09-21T19:48:16.218Z,2.90
2023-09-21T19:50:43.690Z,3.00
2023-09-21T19:53:11.805Z,3.05
2023-09-21T19:55:39.021Z,3.10
2023-09-21T19:58:05.919Z,3.08
2023-09-21T20:00:32.842Z,2.90
2023-09-21T20:02:59.918Z,2.90
2023-09-21T20:05:26.875Z,3.40
2023-09-21T20:07:53.631Z,3.50
2023-09-21T20:10:20.544Z,3.35
2023-09-21T20:12:48.529Z,3.53
2023-09-21T20:15:15.428Z,3.38
2023-09-21T20:17:42.209Z,3.47
2023-09-21T20:20:09.165Z,3.40
2023-09-21T20:22:35.933Z,3.58
2023-09-21T20:25:02.828Z,3.42
2023-09-21T20:27:29.700Z,3.38
2023-09-21T20:29:56.981Z,4.00
2023-09-21T20:32:23.729Z,3.58
2023-09-21T20:34:50.477Z,4.25
2023-09-21T20:37:21.651Z,3.17
2023-09-21T20:39:49.413Z,3.45
2023-09-21T20:42:16.348Z,3.28
2023-09-21T20:44:44.142Z,3.60
2023-09-21T20:47:11.617Z,3.10
2023-09-21T20:49:38.707Z,3.30
2023-09-21T20:52:05.763Z,3.75
2023-09-21T20:54:32.569Z,3.85
2023-09-21T20:56:59.311Z,3.50
2023-09-21T20:59:26.303Z,3.80
2023-09-21T21:01:53.163Z,3.92
2023-09-21T21:04:19.987Z,3.50
2023-09-21T21:06:47.446Z,3.47
2023-09-21T21:09:14.267Z,3.83
2023-09-21T21:11:41.446Z,3.33
2023-09-21T21:14:08.738Z,2.80
2023-09-21T21:16:35.563Z,2.90
2023-09-21T21:19:02.439Z,2.55
2023-09-21T21:21:29.581Z,2.30
2023-09-21T21:24:01.134Z,2.65
2023-09-21T21:26:28.136Z,1.67
2023-09-21T21:28:54.905Z,1.90
2023-09-21T21:31:21.646Z,1.92
2023-09-21T21:33:48.574Z,1.80
2023-09-21T21:36:15.576Z,1.40
2023-09-21T21:38:42.428Z,1.67
2023-09-21T21:41:09.197Z,1.45
2023-09-21T21:43:37.566Z,1.67
2023-09-21T21:46:05.580Z,1.40
2023-09-21T21:48:32.534Z,1.38
2023-09-21T21:50:59.320Z,1.65
2023-09-21T21:53:26.104Z,1.50
2023-09-21T21:55:53.196Z,1.30
2023-09-21T21:58:19.967Z,1.55
2023-09-21T22:00:49.230Z,1.25
2023-09-21T22:03:17.190Z,1.42
2023-09-21T22:05:45.106Z,1.77
2023-09-21T22:08:12.453Z,1.58
2023-09-21T22:10:39.692Z,1.50
2023-09-21T22:13:06.979Z,1.80
2023-09-21T22:15:37.448Z,1.45
2023-09-21T22:18:06.693Z,1.65
2023-09-21T22:20:34.862Z,1.55
2023-09-21T22:23:02.393Z,1.67
2023-09-21T22:25:29.295Z,1.58
2023-09-21T22:27:56.149Z,1.33
2023-09-21T22:30:23.040Z,1.33
2023-09-21T22:32:49.830Z,1.30
2023-09-21T22:35:17.008Z,1.70
2023-09-21T22:37:44.032Z,1.73
2023-09-21T22:40:12.724Z,1.67
2023-09-21T22:42:48.795Z,1.48
2023-09-21T22:45:17.600Z,1.50
2023-09-21T22:47:45.191Z,1.15
2023-09-21T22:50:17.731Z,1.80
2023-09-21T22:52:49.054Z,1.42
2023-09-21T22:55:20.732Z,1.38
2023-09-21T22:57:48.003Z,1.70
2023-09-21T23:00:18.215Z,1.60
2023-09-21T23:02:46.254Z,1.65
2023-09-21T23:05:13.561Z,1.48
2023-09-21T23:07:41.692Z,1.80
2023-09-21T23:10:15.725Z,1.50
2023-09-21T23:15:14.187Z,1.40
2023-09-21T23:17:45.146Z,1.52
2023-09-21T23:20:21.169Z,1.30
2023-09-21T23:22:50.892Z,1.58
2023-09-21T23:25:19.526Z,1.50
2023-09-21T23:27:46.551Z,1.67
2023-09-21T23:30:13.768Z,1.45
2023-09-21T23:32:43.153Z,1.52
2023-09-21T23:35:13.309Z,1.45
2023-09-21T23:37:41.345Z,1.33
2023-09-21T23:40:10.058Z,1.58
2023-09-21T23:42:38.207Z,1.40
2023-09-21T23:45:11.963Z,1.60
2023-09-21T23:47:41.419Z,1.40
2023-09-21T23:50:11.137Z,1.73
2023-09-21T23:52:49.484Z,1.30
2023-09-21T23:55:17.125Z,1.42
2023-09-21T23:57:44.412Z,1.48
